Time;durP1;ratioP1;P1;durP2;ratioP2;P2;SDS_P1;SDS_P2;PMS_P1;PMS_P2;Temp;Humidity;BMP_temperature;BMP_pressure;BME280_temperature;BME280_humidity;BME280_pressure;Samples;Min_cycle;Max_cycle;Signal;HPM_P1;HPM_P2
2022/02/09 00:08:10;;;;;;;12.48;1.58;;;;;;;8.88;100.00;102670.59;5099224;28;20066;-74
2022/02/09 00:10:10;;;;;;;12.80;1.60;;;;;;;8.88;100.00;102672.31;5088137;28;20036;-74
2022/02/09 00:12:49;;;;;;;9.50;2.05;;;;;;;8.96;100.00;102664.88;5104868;28;20486;-74
2022/02/09 00:18:07;;;;;;;12.75;1.50;;;;;;;8.97;100.00;102649.19;5104913;28;20039;-75
2022/02/09 00:23:44;;;;;;;11.52;1.30;;;;;;;8.92;100.00;102648.03;5107503;28;20078;-74
2022/02/09 00:29:28;;;;;;;9.07;1.75;;;;;;;8.89;100.00;102653.13;5103631;28;20034;-75
2022/02/09 00:45:19;;;;;;;8.30;1.83;;;;;;;8.93;100.00;102658.63;5078820;28;20075;-75
2022/02/09 01:39:37;;;;;;;10.35;2.15;;;;;;;8.90;100.00;102632.22;5101799;28;20089;-74
2022/02/09 01:55:50;;;;;;;7.78;2.58;;;;;;;8.97;100.00;102636.06;5095580;27;20310;-74
2022/02/09 01:58:16;;;;;;;6.25;2.95;;;;;;;8.95;100.00;102619.31;5085537;28;20438;-74
2022/02/09 02:00:42;;;;;;;14.10;2.50;;;;;;;8.98;100.00;102632.63;5094060;28;20031;-74
2022/02/09 02:03:07;;;;;;;9.98;2.92;;;;;;;8.94;100.00;102614.91;5097670;28;20426;-74
2022/02/09 02:05:35;;;;;;;11.27;2.72;;;;;;;8.96;100.00;102617.59;5107368;28;20036;-74
2022/02/09 02:08:02;;;;;;;7.45;2.60;;;;;;;8.97;100.00;102617.69;5101534;28;20450;-74
2022/02/09 02:10:35;;;;;;;6.45;2.70;;;;;;;8.96;100.00;102617.59;5084094;28;20028;-74
2022/02/09 02:18:06;;;;;;;4.32;2.60;;;;;;;8.97;100.00;102612.44;5094970;28;20039;-74
2022/02/09 02:20:55;;;;;;;8.77;2.85;;;;;;;8.96;100.00;102613.25;5075298;28;20023;-75
2022/02/09 02:25:59;;;;;;;5.60;3.13;;;;;;;8.99;100.00;102602.00;5094050;28;20040;-75
2022/02/09 02:28:41;;;;;;;10.95;3.28;;;;;;;9.04;100.00;102604.03;5104577;28;20036;-74
2022/02/09 03:13:23;;;;;;;5.20;3.20;;;;;;;8.96;100.00;102562.47;5107170;28;20042;-76
2022/02/09 03:15:54;;;;;;;6.07;3.15;;;;;;;8.98;100.00;102564.34;5096705;28;20016;-74
2022/02/09 03:23:46;;;;;;;10.48;2.78;;;;;;;9.04;100.00;102569.00;5097095;28;20484;-75
2022/02/09 03:47:39;;;;;;;7.75;3.60;;;;;;;9.01;100.00;102550.47;5102315;28;20036;-74
2022/02/09 03:50:42;;;;;;;4.95;2.63;;;;;;;8.99;100.00;102539.88;5073841;28;20131;-75
2022/02/09 03:58:16;;;;;;;5.45;2.40;;;;;;;8.98;100.00;102547.66;5082277;28;20040;-75
2022/02/09 04:00:43;;;;;;;4.32;2.80;;;;;;;8.96;100.00;102544.97;5087985;28;20491;-75
2022/02/09 04:03:14;;;;;;;5.38;3.78;;;;;;;9.00;100.00;102538.16;5067238;28;20029;-75
2022/02/09 04:05:40;;;;;;;6.10;3.10;;;;;;;8.96;100.00;102534.47;5061105;28;20385;-75
2022/02/09 04:08:10;;;;;;;7.03;3.03;;;;;;;8.93;100.00;102539.56;5076102;28;20036;-75
2022/02/09 04:10:41;;;;;;;11.75;3.05;;;;;;;8.94;100.00;102549.25;5077754;28;20075;-74
2022/02/09 04:16:01;;;;;;;;;;;;;;;8.94;100.00;102541.38;5090799;28;20039;-75
2022/02/09 04:19:07;;;;;;;8.77;3.30;;;;;;;8.92;100.00;102543.91;5072392;28;20264;-74
2022/02/09 04:40:13;;;;;;;7.30;3.92;;;;;;;8.96;100.00;102528.34;5098539;28;20042;-74
2022/02/09 04:50:38;;;;;;;7.63;4.18;;;;;;;8.86;100.00;102525.25;5109655;28;20034;-74
2022/02/09 04:53:21;;;;;;;11.10;3.97;;;;;;;8.90;100.00;102521.06;5087736;28;20415;-74
2022/02/09 05:01:32;;;;;;;10.65;4.60;;;;;;;8.86;100.00;102516.47;5106839;28;20043;-74
2022/02/09 05:21:03;;;;;;;9.00;4.63;;;;;;;8.76;100.00;102528.22;5084385;28;20043;-74
2022/02/09 05:28:09;;;;;;;6.55;4.10;;;;;;;8.72;100.00;102514.03;5097047;28;20115;-75
2022/02/09 05:30:34;;;;;;;9.38;4.50;;;;;;;8.80;100.00;102526.66;5103392;28;20658;-75
2022/02/09 05:33:00;;;;;;;9.85;4.57;;;;;;;8.72;100.00;102519.28;5080508;28;20058;-74
2022/02/09 05:35:26;;;;;;;9.00;4.47;;;;;;;8.78;100.00;102527.47;5094437;28;20077;-74
2022/02/09 05:37:53;;;;;;;11.73;5.25;;;;;;;8.78;100.00;102524.84;5081124;28;20020;-74
2022/02/09 05:40:19;;;;;;;9.02;4.55;;;;;;;8.70;100.00;102534.03;5094809;28;20541;-74
2022/02/09 05:42:45;;;;;;;9.02;4.55;;;;;;;8.67;100.00;102526.03;5098998;28;20061;-74
2022/02/09 05:45:11;;;;;;;9.07;4.40;;;;;;;8.67;100.00;102526.03;5104120;28;20040;-73
2022/02/09 05:50:32;;;;;;;;;;;;;;;8.61;100.00;102520.44;5102750;28;20039;-74
2022/02/09 05:55:44;;;;;;;8.10;4.05;;;;;;;8.67;100.00;102518.16;5099266;28;20032;-73
2022/02/09 05:58:13;;;;;;;7.43;4.18;;;;;;;8.67;100.00;102520.78;5097250;28;20050;-74
2022/02/09 06:00:47;;;;;;;6.13;4.20;;;;;;;8.62;100.00;102522.25;5104573;28;20082;-74
2022/02/09 06:03:15;;;;;;;13.90;4.88;;;;;;;8.69;100.00;102508.63;5086544;28;20089;-73
2022/02/09 06:05:41;;;;;;;9.10;3.92;;;;;;;8.66;100.00;102521.59;5089077;27;20027;-75
2022/02/09 06:08:07;;;;;;;5.45;4.28;;;;;;;8.64;100.00;102515.38;5102045;27;20084;-74
2022/02/09 06:10:34;;;;;;;10.95;4.70;;;;;;;8.63;100.00;102513.56;5104924;28;20042;-74
2022/02/09 06:13:22;;;;;;;6.40;4.18;;;;;;;8.66;100.00;102515.44;5096337;28;20032;-74
2022/02/09 06:21:19;;;;;;;14.10;4.20;;;;;;;8.57;100.00;102514.16;5102652;28;20306;-74
2022/02/09 06:23:48;;;;;;;5.25;3.97;;;;;;;8.53;100.00;102521.78;5077094;28;20374;-74
2022/02/09 06:26:14;;;;;;;6.38;4.28;;;;;;;8.54;100.00;102515.72;5094273;28;20043;-73
2022/02/09 06:28:39;;;;;;;6.43;4.50;;;;;;;8.49;100.00;102509.31;5095751;28;20020;-75
2022/02/09 06:31:05;;;;;;;11.38;4.22;;;;;;;8.48;100.00;102520.63;5078124;28;20110;-74
2022/02/09 06:33:30;;;;;;;9.43;4.28;;;;;;;8.51;100.00;102518.19;5094568;28;20024;-74
2022/02/09 06:35:59;;;;;;;7.63;4.80;;;;;;;8.52;100.00;102514.72;5094783;28;20111;-75
2022/02/09 06:38:24;;;;;;;9.13;4.80;;;;;;;8.55;100.00;102520.16;5088762;28;20055;-75
2022/02/09 06:40:54;;;;;;;7.75;4.25;;;;;;;8.57;100.00;102510.63;5076686;28;20024;-75
2022/02/09 06:43:20;;;;;;;9.30;4.35;;;;;;;8.61;100.00;102512.56;5106103;28;20110;-74
2022/02/09 06:45:45;;;;;;;6.85;3.65;;;;;;;8.63;100.00;102512.66;5076879;28;20054;-74
2022/02/09 06:48:16;;;;;;;6.47;4.15;;;;;;;8.59;100.00;102514.22;5084521;28;20020;-75
2022/02/09 06:50:49;;;;;;;6.25;4.53;;;;;;;8.60;100.00;102508.16;5085000;28;20035;-74
2022/02/09 06:55:52;;;;;;;7.97;4.30;;;;;;;8.63;100.00;102515.28;5097790;28;20028;-76
2022/02/09 06:58:22;;;;;;;8.43;4.15;;;;;;;8.63;100.00;102497.81;5097747;28;20068;-77
2022/02/09 07:00:47;;;;;;;6.57;4.35;;;;;;;8.60;100.00;102495.06;5098104;28;20046;-75
2022/02/09 07:03:13;;;;;;;12.00;4.15;;;;;;;8.64;100.00;102496.09;5097735;28;20016;-77
2022/02/09 07:05:40;;;;;;;11.45;4.07;;;;;;;8.62;100.00;102496.00;5080663;28;20028;-76
2022/02/09 07:08:06;;;;;;;6.78;2.92;;;;;;;8.66;100.00;102491.84;5100641;28;20024;-75
2022/02/09 07:10:36;;;;;;;7.68;3.30;;;;;;;8.65;100.00;102490.91;5092751;28;20545;-76
2022/02/09 07:13:02;;;;;;;9.95;3.80;;;;;;;8.67;100.00;102498.84;5108990;28;20019;-75
2022/02/09 07:15:31;;;;;;;6.85;3.47;;;;;;;8.67;100.00;102491.91;5085051;28;20028;-75
2022/02/09 07:17:58;;;;;;;7.43;4.18;;;;;;;8.71;100.00;102482.47;5078346;28;20475;-76
2022/02/09 07:20:29;;;;;;;8.45;4.53;;;;;;;8.70;100.00;102493.78;5100316;28;20043;-75
2022/02/09 07:22:58;;;;;;;7.72;4.60;;;;;;;8.72;100.00;102497.38;5083716;28;20028;-75
2022/02/09 07:25:31;;;;;;;10.75;5.25;;;;;;;8.68;100.00;102491.09;5077927;28;20372;-75
2022/02/09 07:28:00;;;;;;;11.83;5.20;;;;;;;8.63;100.00;102503.06;5102589;28;20016;-75
2022/02/09 07:30:27;;;;;;;10.98;5.00;;;;;;;8.67;100.00;102493.63;5076571;28;20032;-74
2022/02/09 07:32:59;;;;;;;11.43;5.57;;;;;;;8.64;100.00;102488.22;5105401;28;20428;-74
2022/02/09 07:35:25;;;;;;;11.10;5.90;;;;;;;8.67;100.00;102488.38;5108553;27;20077;-74
2022/02/09 07:37:51;;;;;;;6.45;4.88;;;;;;;8.61;100.00;102496.81;5092151;27;20032;-74
2022/02/09 07:40:18;;;;;;;7.13;5.95;;;;;;;8.63;100.00;102497.81;5086065;28;20275;-76
2022/02/09 07:42:48;;;;;;;9.40;6.32;;;;;;;8.64;100.00;102515.38;5096346;28;20030;-72
2022/02/09 07:48:00;;;;;;;16.13;6.35;;;;;;;8.65;100.00;102503.16;5101265;27;20034;-74
2022/02/09 07:52:55;;;;;;;10.65;6.80;;;;;;;8.66;100.00;102516.34;5092782;28;20052;-73
2022/02/09 07:55:21;;;;;;;11.38;7.25;;;;;;;8.65;100.00;102508.41;5091451;28;20529;-74
2022/02/09 07:57:46;;;;;;;11.65;6.30;;;;;;;8.69;100.00;102507.72;5077512;28;20028;-74
2022/02/09 08:00:13;;;;;;;10.52;6.90;;;;;;;8.69;100.00;102507.72;5077491;28;20088;-74
2022/02/09 08:02:39;;;;;;;9.43;6.72;;;;;;;8.72;100.00;102503.56;5091009;28;20032;-74
2022/02/09 08:05:05;;;;;;;13.90;7.18;;;;;;;8.64;100.00;102498.72;5082457;28;20044;-73
2022/02/09 08:07:30;;;;;;;10.20;6.25;;;;;;;8.73;100.00;102499.19;5084057;28;20039;-74
2022/02/09 08:09:58;;;;;;;13.98;7.30;;;;;;;8.75;100.00;102498.44;5069822;28;20704;-74
2022/02/09 08:12:39;;;;;;;10.45;7.13;;;;;;;8.71;100.00;102495.59;5081882;28;20538;-75
2022/02/09 08:20:27;;;;;;;7.43;5.68;;;;;;;8.66;100.00;102502.34;5094981;28;20097;-74
2022/02/09 08:26:23;;;;;;;7.30;6.32;;;;;;;8.60;100.00;102489.81;5078534;28;20420;-75
2022/02/09 08:33:42;;;;;;;11.65;5.47;;;;;;;8.76;100.00;102508.13;5089515;28;20042;-73
2022/02/09 08:36:08;;;;;;;8.07;6.30;;;;;;;8.73;100.00;102494.81;5085903;28;20031;-75
2022/02/09 08:38:34;;;;;;;8.18;6.32;;;;;;;8.71;100.00;102492.97;5091848;28;20538;-75
2022/02/09 08:40:59;;;;;;;11.52;6.60;;;;;;;8.70;100.00;102494.69;5097752;28;20375;-75
2022/02/09 08:43:25;;;;;;;7.28;5.80;;;;;;;8.76;100.00;102489.75;5068792;28;20039;-75
2022/02/09 08:45:51;;;;;;;7.20;5.70;;;;;;;8.69;100.00;102494.59;5066748;28;20028;-74
2022/02/09 08:48:20;;;;;;;9.40;6.38;;;;;;;8.75;100.00;102501.06;5083435;28;20031;-74
2022/02/09 08:50:46;;;;;;;9.57;6.60;;;;;;;8.80;100.00;102500.41;5080482;28;20037;-74
2022/02/09 08:53:11;;;;;;;15.52;6.22;;;;;;;8.85;100.00;102498.91;5091698;27;20048;-73
2022/02/09 08:55:37;;;;;;;8.45;5.93;;;;;;;8.90;100.00;102503.56;5099592;27;20028;-74
2022/02/09 08:58:04;;;;;;;8.48;6.40;;;;;;;8.93;100.00;102497.56;5101111;27;20059;-74
2022/02/09 09:00:33;;;;;;;14.13;6.47;;;;;;;8.89;100.00;102488.63;5085662;28;20106;-74
2022/02/09 09:03:25;;;;;;;11.93;6.32;;;;;;;8.96;100.00;102488.94;5102618;27;20043;-74
2022/02/09 09:05:50;;;;;;;10.73;6.75;;;;;;;8.90;100.00;102497.44;5095208;27;20032;-73
2022/02/09 09:12:02;;;;;;;10.02;6.88;;;;;;;8.93;100.00;102497.56;5099657;27;20042;-74
2022/02/09 09:58:03;;;;;;;11.77;5.78;;;;;;;9.59;100.00;102487.63;5094037;27;20130;-74
2022/02/09 10:03:29;;;;;;;9.73;5.57;;;;;;;9.63;100.00;102499.22;5096990;27;20084;-74
2022/02/09 10:33:58;;;;;;;;;;;;;;;10.67;100.00;102502.09;5105548;28;20531;-72
2022/02/09 10:36:24;;;;;;;14.48;6.22;;;;;;;10.79;99.05;102507.91;5107638;28;20276;-73
2022/02/09 10:39:03;;;;;;;12.75;5.00;;;;;;;10.72;98.85;102507.59;5102952;28;20084;-73
2022/02/09 10:41:35;;;;;;;8.35;5.25;;;;;;;10.88;98.88;102506.47;5102382;28;20015;-74
2022/02/09 10:44:06;;;;;;;9.95;5.55;;;;;;;10.80;98.69;102506.19;5083854;28;20083;-74
2022/02/09 10:46:34;;;;;;;9.65;6.07;;;;;;;10.75;98.95;102503.34;5089072;28;20210;-74
2022/02/09 10:49:01;;;;;;;11.80;6.20;;;;;;;10.68;98.92;102514.44;5116843;28;20466;-74
2022/02/09 10:54:08;;;;;;;12.50;7.28;;;;;;;10.20;100.00;102519.31;5103228;28;20031;-74
2022/02/09 10:56:35;;;;;;;10.90;6.22;;;;;;;10.22;100.00;102526.44;5098821;28;20024;-75
2022/02/09 10:59:03;;;;;;;9.30;5.97;;;;;;;10.28;100.00;102524.09;5091347;28;20772;-73
2022/02/09 11:01:29;;;;;;;13.57;7.30;;;;;;;10.15;100.00;102532.25;5084389;28;20475;-74
2022/02/09 11:03:56;;;;;;;15.85;6.63;;;;;;;10.04;100.00;102546.66;5116993;28;20097;-73
2022/02/09 11:06:26;;;;;;;12.02;7.13;;;;;;;9.88;100.00;102537.16;5119860;27;20033;-74
2022/02/09 11:08:51;;;;;;;12.45;6.95;;;;;;;10.05;100.00;102537.91;5097591;28;20032;-73
2022/02/09 11:11:17;;;;;;;13.13;6.97;;;;;;;9.94;100.00;102534.78;5096815;27;20040;-74
2022/02/09 11:13:43;;;;;;;15.27;7.22;;;;;;;10.07;100.00;102539.78;5118100;27;20065;-74
2022/02/09 11:16:12;;;;;;;15.10;6.45;;;;;;;10.10;100.00;102537.28;5105216;27;20065;-75
2022/02/09 11:18:38;;;;;;;14.52;6.68;;;;;;;10.27;100.00;102529.28;5096144;28;20032;-74
2022/02/09 11:21:09;;;;;;;12.90;6.88;;;;;;;10.33;100.00;102536.56;5107649;28;20028;-74
2022/02/09 11:23:37;;;;;;;16.48;6.97;;;;;;;10.21;100.00;102537.78;5069910;28;20495;-74
2022/02/09 11:26:10;;;;;;;12.80;7.40;;;;;;;10.11;100.00;102536.47;5100138;27;20023;-73
2022/02/09 11:28:40;;;;;;;15.68;7.32;;;;;;;10.08;100.00;102536.34;5117079;27;20019;-75
2022/02/09 11:31:16;;;;;;;14.32;8.05;;;;;;;10.05;100.00;102536.22;5103875;28;20034;-74
2022/02/09 11:33:57;;;;;;;9.75;6.10;;;;;;;10.17;100.00;102527.06;5105992;27;20031;-74
2022/02/09 11:36:43;;;;;;;12.48;7.05;;;;;;;9.96;100.00;102530.53;5114470;27;20022;-73
2022/02/09 11:39:18;;;;;;;11.55;6.75;;;;;;;10.19;100.00;102526.31;5080456;28;20109;-74
2022/02/09 11:42:08;;;;;;;13.52;7.07;;;;;;;10.26;100.00;102524.84;5101697;27;20023;-74
2022/02/09 11:44:59;;;;;;;11.10;6.30;;;;;;;10.33;100.00;102526.91;5110557;27;20059;-74
2022/02/09 11:54:35;;;;;;;17.40;6.35;;;;;;;10.29;100.00;102515.38;5092838;28;20580;-74
2022/02/09 12:12:03;;;;;;;13.93;6.70;;;;;;;10.12;100.00;102506.72;5109299;27;20501;-74
2022/02/09 12:17:47;;;;;;;14.15;6.15;;;;;;;9.86;100.00;102501.97;5103273;27;20076;-73
2022/02/09 12:20:32;;;;;;;11.90;6.40;;;;;;;9.87;100.00;102503.78;5102268;27;20032;-72
2022/02/09 12:23:07;;;;;;;15.02;6.20;;;;;;;9.82;100.00;102505.31;5110263;27;20035;-73
2022/02/09 12:25:47;;;;;;;12.77;6.25;;;;;;;9.82;100.00;102497.41;5118193;27;20088;-73
2022/02/09 12:28:21;;;;;;;12.38;6.07;;;;;;;9.98;100.00;102492.03;5106359;27;20058;-74
2022/02/09 12:30:49;;;;;;;9.07;5.97;;;;;;;9.94;100.00;102505.88;5096096;27;20394;-74
2022/02/09 12:33:22;;;;;;;13.65;5.85;;;;;;;9.93;100.00;102494.47;5117728;27;20028;-74
2022/02/09 12:35:48;;;;;;;13.45;6.10;;;;;;;9.87;100.00;102488.00;5093907;27;20535;-74
2022/02/09 12:38:13;;;;;;;17.45;6.68;;;;;;;9.87;100.00;102498.53;5080419;28;20112;-74
2022/02/09 12:40:41;;;;;;;13.10;6.78;;;;;;;9.82;100.00;102500.03;5125833;27;20042;-75
2022/02/09 12:43:12;;;;;;;16.17;6.35;;;;;;;9.80;100.00;102502.59;5114079;27;20024;-74
2022/02/09 12:45:38;;;;;;;17.15;6.45;;;;;;;9.81;100.00;102503.50;5104025;27;20070;-73
2022/02/09 12:48:07;;;;;;;17.35;7.20;;;;;;;9.87;100.00;102496.78;5110231;27;20023;-73
2022/02/09 12:50:38;;;;;;;15.18;6.28;;;;;;;9.82;100.00;102494.78;5113941;27;20032;-74
2022/02/09 12:53:05;;;;;;;13.23;6.20;;;;;;;9.82;100.00;102503.59;5100923;28;20405;-74
2022/02/09 12:55:33;;;;;;;14.25;6.07;;;;;;;9.81;100.00;102498.22;5103056;27;20020;-75
2022/02/09 12:58:09;;;;;;;12.00;6.53;;;;;;;9.83;100.00;102504.47;5090563;27;20034;-74
2022/02/09 13:00:38;;;;;;;11.98;6.65;;;;;;;9.83;100.00;102497.47;5110419;27;20028;-73
2022/02/09 13:03:06;;;;;;;12.32;6.25;;;;;;;9.87;100.00;102503.78;5103744;27;20067;-74
2022/02/09 13:05:40;;;;;;;13.52;5.80;;;;;;;9.95;100.00;102486.63;5106298;27;20028;-74
2022/02/09 13:08:06;;;;;;;12.60;5.35;;;;;;;9.99;100.00;102485.94;5115617;27;20034;-73
2022/02/09 13:10:33;;;;;;;14.05;6.00;;;;;;;9.92;100.00;102486.50;5085537;28;20106;-73
2022/02/09 13:13:16;;;;;;;11.88;5.78;;;;;;;10.05;100.00;102473.09;5126421;27;20417;-73
2022/02/09 13:15:51;;;;;;;14.23;5.68;;;;;;;9.90;100.00;102475.00;5114974;27;20047;-73
2022/02/09 14:11:02;;;;;;;11.07;5.35;;;;;;;9.41;100.00;102477.16;5099848;28;20114;-75
2022/02/09 14:53:22;;;;;;;17.42;6.53;;;;;;;9.08;100.00;102500.06;5103802;28;20522;-75
2022/02/09 14:58:23;;;;;;;12.13;7.43;;;;;;;8.96;100.00;102492.47;5123312;27;20031;-74
2022/02/09 15:08:43;;;;;;;21.60;8.43;;;;;;;8.66;100.00;102513.72;5099878;28;20035;-75
2022/02/09 15:11:22;;;;;;;22.08;10.27;;;;;;;8.66;100.00;102524.22;5110077;27;20027;-74
2022/02/09 15:16:31;;;;;;;22.67;11.32;;;;;;;8.54;100.00;102511.34;5111838;27;20387;-75
2022/02/09 15:24:29;;;;;;;22.42;11.27;;;;;;;8.50;100.00;102512.00;5124595;27;20087;-76
2022/02/09 15:26:57;;;;;;;25.92;11.23;;;;;;;8.50;100.00;102505.88;5084743;28;20024;-74
2022/02/09 15:29:23;;;;;;;29.65;12.00;;;;;;;8.42;100.00;102502.81;5081715;28;20036;-75
2022/02/09 15:31:55;;;;;;;27.27;11.40;;;;;;;8.43;100.00;102510.75;5105118;28;20026;-74
2022/02/09 15:37:08;;;;;;;26.75;12.40;;;;;;;8.41;100.00;102507.16;5102488;27;20047;-74
2022/02/09 15:39:39;;;;;;;30.90;12.25;;;;;;;8.46;100.00;102504.81;5103738;27;20103;-74
2022/02/09 16:09:31;;;;;;;28.95;14.63;;;;;;;8.17;100.00;102490.16;5124020;27;20035;-78
2022/02/09 16:18:03;;;;;;;44.20;14.15;;;;;;;8.20;100.00;102485.94;5100752;27;20043;-79
2022/02/09 16:23:04;;;;;;;30.63;14.63;;;;;;;8.18;100.00;102481.44;5121162;27;20128;-74
2022/02/09 16:46:33;;;;;;;33.50;14.23;;;;;;;8.10;100.00;102466.22;5100639;27;20048;-74
2022/02/09 16:49:05;;;;;;;30.05;13.23;;;;;;;8.07;100.00;102476.56;5088665;28;20034;-73
2022/02/09 16:51:40;;;;;;;42.38;12.88;;;;;;;8.11;100.00;102474.97;5101031;28;20591;-73
2022/02/09 16:56:52;;;;;;;32.63;13.68;;;;;;;8.11;100.00;102472.34;5096127;28;20035;-74
2022/02/09 17:21:13;;;;;;;31.05;13.05;;;;;;;8.06;100.00;102472.13;5093609;28;20273;-74
2022/02/09 17:23:39;;;;;;;26.05;13.23;;;;;;;8.03;100.00;102474.59;5098041;28;20036;-73
2022/02/09 17:26:05;;;;;;;34.88;12.90;;;;;;;8.04;100.00;102465.88;5082214;28;20517;-74
2022/02/09 17:28:30;;;;;;;28.33;13.63;;;;;;;8.06;100.00;102466.88;5099298;28;20027;-75
2022/02/09 17:36:03;;;;;;;34.30;13.15;;;;;;;8.09;100.00;102467.03;5096164;28;20031;-77
2022/02/09 17:57:23;;;;;;;;;;;;;;;8.16;100.00;102447.28;5105177;27;20153;-76
2022/02/09 18:00:08;;;;;;;29.55;13.45;;;;;;;8.11;100.00;102446.13;5088657;28;19911;-76
2022/02/09 18:02:34;;;;;;;38.67;15.32;;;;;;;8.11;100.00;102443.50;5101102;28;20032;-76
2022/02/09 18:05:00;;;;;;;47.03;14.93;;;;;;;8.12;100.00;102450.56;5077129;28;20081;-76
2022/02/09 18:07:29;;;;;;;35.88;15.13;;;;;;;8.09;100.00;102446.06;5087390;28;20031;-75
2022/02/09 18:10:04;;;;;;;43.50;14.93;;;;;;;8.10;100.00;102442.63;5099745;27;20103;-76
2022/02/09 18:12:49;;;;;;;33.42;14.38;;;;;;;8.12;100.00;102444.44;5105397;28;20084;-76
2022/02/09 18:31:11;;;;;;;36.03;13.77;;;;;;;8.14;100.00;102432.28;5105202;28;20039;-75
2022/02/09 18:44:34;;;;;;;31.80;12.65;;;;;;;8.13;100.00;102423.53;5095947;28;20039;-76
2022/02/09 18:59:21;;;;;;;27.80;11.45;;;;;;;8.16;100.00;102399.19;5103843;28;20047;-76
2022/02/09 19:05:52;;;;;;;28.85;9.80;;;;;;;8.17;100.00;102401.00;5092423;28;20066;-77
2022/02/09 19:08:39;;;;;;;26.10;10.23;;;;;;;8.16;100.00;102399.19;5104734;28;20059;-74
2022/02/09 19:40:49;;;;;;;24.30;10.48;;;;;;;8.24;100.00;102383.00;5098256;28;20055;-76
2022/02/09 19:48:44;;;;;;;26.15;12.23;;;;;;;8.23;100.00;102376.00;5096142;28;20041;-75
2022/02/09 19:51:21;;;;;;;25.65;11.48;;;;;;;8.24;100.00;102382.13;5112776;28;20072;-77
2022/02/09 19:56:23;;;;;;;22.83;11.23;;;;;;;8.18;100.00;102376.56;5099928;28;20391;-76
2022/02/09 19:59:34;;;;;;;24.48;12.23;;;;;;;8.20;100.00;102370.56;5080313;27;20036;-75
2022/02/09 20:01:38;;;;;;;23.45;10.95;;;;;;;8.21;100.00;102372.38;5095776;27;20032;-73
2022/02/09 20:04:06;;;;;;;31.80;12.80;;;;;;;8.18;100.00;102372.22;5080905;28;20426;-78
2022/02/09 20:06:32;;;;;;;26.95;10.98;;;;;;;8.24;100.00;102374.25;5084926;28;20028;-72
2022/02/09 20:08:57;;;;;;;26.50;10.70;;;;;;;8.19;100.00;102365.25;5081752;28;20537;-73
2022/02/09 20:11:23;;;;;;;27.50;12.00;;;;;;;8.18;100.00;102373.94;5100248;28;20036;-74
2022/02/09 20:13:50;;;;;;;19.85;9.38;;;;;;;8.17;100.00;102370.44;5107376;28;20483;-73
2022/02/09 20:16:19;;;;;;;27.08;11.20;;;;;;;8.17;100.00;102361.66;5104712;28;20043;-73
2022/02/09 20:18:45;;;;;;;29.02;11.45;;;;;;;8.15;100.00;102365.91;5102018;28;20032;-73
2022/02/09 20:21:10;;;;;;;26.23;9.88;;;;;;;8.14;100.00;102369.34;5088797;28;20031;-73
2022/02/09 20:23:36;;;;;;;21.00;9.90;;;;;;;8.18;100.00;102360.81;5119462;27;20376;-73
2022/02/09 20:26:06;;;;;;;19.30;9.52;;;;;;;8.17;100.00;102364.28;5108493;27;20040;-73
2022/02/09 20:28:32;;;;;;;19.77;9.70;;;;;;;8.16;100.00;102358.13;5118120;27;20042;-73
2022/02/09 20:31:03;;;;;;;16.27;8.82;;;;;;;8.16;100.00;102359.88;5112804;27;20031;-73
2022/02/09 20:33:37;;;;;;;15.90;8.45;;;;;;;8.18;100.00;102350.34;5096264;28;20038;-74
2022/02/09 20:36:05;;;;;;;23.80;8.60;;;;;;;8.16;100.00;102341.50;5079432;28;20012;-73
2022/02/09 20:38:32;;;;;;;18.88;8.55;;;;;;;8.17;100.00;102340.69;5098115;28;20063;-73
2022/02/09 20:40:58;;;;;;;25.52;9.63;;;;;;;8.14;100.00;102337.88;5100947;28;20020;-73
2022/02/09 20:43:25;;;;;;;19.63;9.30;;;;;;;8.12;100.00;102335.19;5095191;28;20119;-72
2022/02/09 20:45:55;;;;;;;18.83;9.05;;;;;;;8.12;100.00;102340.44;5096549;28;20030;-75
2022/02/09 20:48:26;;;;;;;23.30;9.65;;;;;;;8.10;100.00;102331.63;5079613;28;20023;-73
2022/02/09 20:50:53;;;;;;;22.40;9.75;;;;;;;8.13;100.00;102336.13;5096900;28;20054;-74
2022/02/09 20:53:20;;;;;;;28.42;10.90;;;;;;;8.16;100.00;102328.41;5101656;28;20070;-74
2022/02/09 20:55:47;;;;;;;20.00;10.60;;;;;;;8.18;100.00;102326.75;5096729;28;20119;-74
2022/02/09 20:58:14;;;;;;;26.85;10.80;;;;;;;8.18;100.00;102329.34;5099184;28;20129;-73
2022/02/09 21:00:45;;;;;;;22.10;11.15;;;;;;;8.26;100.00;102328.03;5094503;28;20107;-74
2022/02/09 21:11:22;;;;;;;24.35;10.40;;;;;;;8.36;100.00;102321.53;5097093;28;20537;-74
2022/02/09 21:19:24;;;;;;;23.67;10.63;;;;;;;8.33;100.00;102314.41;5072699;27;20048;-73
2022/02/09 21:22:26;;;;;;;27.73;10.85;;;;;;;8.28;100.00;102308.91;5111165;27;20042;-72
2022/02/09 21:25:10;;;;;;;22.50;9.93;;;;;;;8.31;100.00;102310.78;5114220;27;20035;-73
2022/02/09 21:33:19;;;;;;;16.95;10.43;;;;;;;8.31;100.00;102300.31;5112671;27;20070;-73
2022/02/09 21:42:01;;;;;;;26.38;11.55;;;;;;;8.28;100.00;102297.53;5094138;28;20519;-73
2022/02/09 21:55:27;;;;;;;31.65;13.88;;;;;;;8.28;100.00;102294.91;5094354;28;20043;-74
2022/02/09 21:58:02;;;;;;;23.95;11.73;;;;;;;8.27;100.00;102288.78;5095550;28;20024;-74
2022/02/09 22:22:02;;;;;;;27.02;14.90;;;;;;;8.24;100.00;102272.00;5104247;28;20035;-73
2022/02/09 22:33:52;;;;;;;29.08;15.13;;;;;;;8.25;100.00;102276.41;5093395;28;20097;-73
2022/02/09 22:56:52;;;;;;;32.97;15.63;;;;;;;8.23;100.00;102244.88;5086094;28;20072;-72
2022/02/09 22:59:28;;;;;;;35.22;17.25;;;;;;;8.25;100.00;102237.97;5080241;28;20117;-74
2022/02/09 23:01:59;;;;;;;37.88;16.45;;;;;;;8.24;100.00;102236.16;5079918;28;20463;-72
2022/02/09 23:07:14;;;;;;;32.78;16.73;;;;;;;8.23;100.00;102231.75;5080499;28;20045;-73
2022/02/09 23:10:03;;;;;;;38.72;16.55;;;;;;;8.26;100.00;102228.38;5058615;28;20033;-73
2022/02/09 23:12:44;;;;;;;40.28;17.60;;;;;;;8.26;100.00;102223.13;5081418;28;20110;-72
2022/02/09 23:23:51;;;;;;;;;;;;;;;8.28;100.00;102224.09;5076985;28;20502;-73
2022/02/09 23:58:16;;;;;;;38.85;21.48;;;;;;;8.20;100.00;102188.75;5105227;28;20038;-71
